Time;durP1;ratioP1;P1;durP2;ratioP2;P2;SDS_P1;SDS_P2;PMS_P1;PMS_P2;Temp;Humidity;BMP_temperature;BMP_pressure;BME280_temperature;BME280_humidity;BME280_pressure;Samples;Min_cycle;Max_cycle;Signal;HPM_P1;HPM_P2
2022/08/14 00:01:22;;;;;;;14.10;10.60;;;;;;;18.54;85.33;98167.63;5029973;28;20029;-69
2022/08/14 00:03:48;;;;;;;13.73;9.93;;;;;;;18.55;85.45;98163.69;5031535;28;20026;-69
2022/08/14 00:06:13;;;;;;;13.63;9.90;;;;;;;18.53;84.96;98165.22;5030883;28;20022;-69
2022/08/14 00:08:39;;;;;;;13.05;10.68;;;;;;;18.53;84.67;98159.69;5031299;28;20072;-69
2022/08/14 00:11:04;;;;;;;11.52;9.70;;;;;;;18.53;84.79;98154.91;5031462;28;20028;-69
2022/08/14 00:13:30;;;;;;;13.27;10.50;;;;;;;18.54;84.76;98150.19;5031575;28;20060;-69
2022/08/14 00:15:58;;;;;;;13.55;10.75;;;;;;;18.55;84.64;98152.59;5031672;28;20109;-69
2022/08/14 00:18:26;;;;;;;14.95;10.98;;;;;;;18.56;84.67;98143.09;5030898;28;20025;-69
2022/08/14 00:20:52;;;;;;;13.98;10.35;;;;;;;18.58;84.43;98139.94;5031106;28;20044;-69
2022/08/14 00:23:18;;;;;;;12.52;10.77;;;;;;;18.57;84.41;98135.56;5031643;28;20021;-68
2022/08/14 00:25:46;;;;;;;15.23;11.35;;;;;;;18.56;84.42;98136.72;5031737;28;20018;-69
2022/08/14 00:28:13;;;;;;;13.13;10.70;;;;;;;18.53;84.95;98140.25;5031346;28;20024;-69
2022/08/14 00:30:40;;;;;;;14.18;10.48;;;;;;;18.50;84.50;98135.41;5031182;28;20533;-69
2022/08/14 00:33:06;;;;;;;12.38;10.50;;;;;;;18.49;84.42;98131.00;5031232;28;20022;-69
2022/08/14 00:35:33;;;;;;;14.07;10.63;;;;;;;18.47;84.71;98138.88;5031530;28;20033;-69
2022/08/14 00:37:58;;;;;;;13.55;10.18;;;;;;;18.45;84.77;98130.91;5031047;28;20036;-69
2022/08/14 00:40:24;;;;;;;13.15;10.43;;;;;;;18.46;84.52;98138.06;5031190;28;20026;-69
2022/08/14 00:42:50;;;;;;;12.65;10.73;;;;;;;18.46;84.67;98126.97;5031046;28;20025;-71
2022/08/14 00:45:17;;;;;;;14.73;10.40;;;;;;;18.45;84.41;98123.41;5030144;28;20070;-68
2022/08/14 00:47:44;;;;;;;13.07;10.32;;;;;;;18.45;84.29;98120.63;5030669;28;20116;-68
2022/08/14 00:50:12;;;;;;;12.93;10.30;;;;;;;18.44;84.47;98124.56;5031207;28;20443;-69
2022/08/14 00:52:40;;;;;;;14.63;9.52;;;;;;;18.44;84.97;98113.44;5030931;28;20061;-69
2022/08/14 00:55:07;;;;;;;12.00;10.48;;;;;;;18.46;84.12;98124.19;5031298;28;20088;-69
2022/08/14 00:57:35;;;;;;;14.57;10.57;;;;;;;18.47;84.54;98119.47;5030787;28;20030;-69
2022/08/14 01:00:03;;;;;;;13.73;10.23;;;;;;;18.47;84.39;98125.00;5030967;28;20471;-69
2022/08/14 01:02:28;;;;;;;12.73;10.13;;;;;;;18.45;84.37;98119.78;5030537;28;20502;-69
2022/08/14 01:04:57;;;;;;;11.50;9.60;;;;;;;18.45;84.76;98117.84;5031210;28;20053;-69
2022/08/14 01:07:25;;;;;;;14.02;10.60;;;;;;;18.42;84.54;98121.34;5030822;28;20037;-69
2022/08/14 01:09:53;;;;;;;13.90;10.77;;;;;;;18.43;84.51;98117.38;5031088;28;20025;-69
2022/08/14 01:12:20;;;;;;;12.80;10.77;;;;;;;18.42;84.25;98118.56;5030665;28;20476;-70
2022/08/14 01:14:54;;;;;;;14.77;10.65;;;;;;;18.42;84.38;98113.00;5030894;28;20048;-69
2022/08/14 01:17:21;;;;;;;14.68;10.82;;;;;;;18.39;84.39;98110.94;5031168;28;20025;-69
2022/08/14 01:22:32;;;;;;;13.55;10.43;;;;;;;18.36;84.34;98110.81;5032306;28;20080;-69
2022/08/14 01:24:58;;;;;;;14.25;10.60;;;;;;;18.35;84.51;98112.00;5034525;28;20024;-70
2022/08/14 01:27:23;;;;;;;14.80;10.68;;;;;;;18.34;84.72;98097.31;5034581;28;20021;-69
2022/08/14 01:29:52;;;;;;;14.75;11.35;;;;;;;18.33;84.72;98097.69;5034641;28;20022;-68
2022/08/14 01:32:18;;;;;;;15.00;10.13;;;;;;;18.35;84.70;98104.47;5034397;28;20396;-69
2022/08/14 01:34:55;;;;;;;16.30;10.95;;;;;;;18.35;84.44;98093.38;5034618;28;20017;-68
2022/08/14 01:37:23;;;;;;;13.73;10.60;;;;;;;18.36;84.55;98106.09;5034592;28;20037;-68
2022/08/14 01:39:50;;;;;;;15.02;11.63;;;;;;;18.33;84.58;98095.69;5033385;28;20360;-68
2022/08/14 01:42:16;;;;;;;13.15;10.90;;;;;;;18.33;84.52;98098.47;5034091;28;20021;-69
2022/08/14 01:44:42;;;;;;;17.10;11.25;;;;;;;18.34;84.39;98089.00;5034006;28;20049;-69
2022/08/14 01:47:12;;;;;;;13.95;11.23;;;;;;;18.34;84.76;98091.75;5034511;28;20013;-69
2022/08/14 01:49:40;;;;;;;13.18;10.48;;;;;;;18.33;84.60;98095.69;5034505;28;20036;-68
2022/08/14 01:52:06;;;;;;;12.10;9.82;;;;;;;18.29;84.69;98098.41;5034254;28;20029;-69
2022/08/14 01:54:32;;;;;;;13.00;10.43;;;;;;;18.25;84.93;98094.72;5034675;28;20104;-68
2022/08/14 01:56:58;;;;;;;13.75;10.80;;;;;;;18.23;84.82;98090.66;5034400;28;20067;-69
2022/08/14 01:59:32;;;;;;;17.70;10.90;;;;;;;18.20;85.16;98096.94;5033896;28;20041;-69
2022/08/14 02:02:02;;;;;;;13.73;10.38;;;;;;;18.17;85.21;98098.47;5034002;28;20499;-68
2022/08/14 02:04:31;;;;;;;13.00;10.38;;;;;;;18.17;84.71;98092.09;5034205;28;20503;-69
2022/08/14 02:06:57;;;;;;;15.75;11.32;;;;;;;18.19;85.31;98087.81;5034029;28;20190;-70
2022/08/14 02:09:23;;;;;;;14.48;10.15;;;;;;;18.19;84.77;98085.03;5030080;28;20160;-69
2022/08/14 02:11:50;;;;;;;17.63;10.55;;;;;;;18.21;84.75;98087.44;5031869;28;20037;-69
2022/08/14 02:14:16;;;;;;;16.98;11.18;;;;;;;18.22;84.57;98089.88;5033713;28;20052;-69
2022/08/14 02:16:51;;;;;;;15.65;10.65;;;;;;;18.21;84.85;98087.44;5033600;28;20057;-69
2022/08/14 02:19:20;;;;;;;13.05;10.73;;;;;;;18.21;84.81;98093.81;5032336;28;20032;-69
2022/08/14 02:21:51;;;;;;;14.27;11.23;;;;;;;18.21;84.46;98090.22;5033017;28;20080;-69
2022/08/14 02:24:22;;;;;;;15.73;11.13;;;;;;;18.22;84.44;98089.06;5033274;28;20774;-69
2022/08/14 02:26:48;;;;;;;13.13;10.48;;;;;;;18.23;84.43;98097.03;5033520;28;20044;-69
2022/08/14 02:29:17;;;;;;;14.63;10.63;;;;;;;18.26;84.50;98089.97;5031496;28;20021;-70
2022/08/14 02:31:48;;;;;;;14.35;11.13;;;;;;;18.26;84.54;98088.00;5032350;28;20017;-69
2022/08/14 02:34:23;;;;;;;13.60;10.50;;;;;;;18.25;84.72;98083.63;5032723;28;20045;-69
2022/08/14 02:36:51;;;;;;;13.85;10.57;;;;;;;18.25;84.42;98091.13;5033229;28;20415;-69
2022/08/14 02:39:18;;;;;;;13.57;10.75;;;;;;;18.22;84.57;98087.09;5031560;28;20638;-69
2022/08/14 02:41:50;;;;;;;13.25;10.52;;;;;;;18.19;84.28;98085.03;5032652;28;20075;-69
2022/08/14 02:44:19;;;;;;;14.40;11.07;;;;;;;18.18;84.24;98080.66;5030402;28;20053;-70
2022/08/14 02:46:46;;;;;;;12.63;10.50;;;;;;;18.18;84.44;98079.81;5032856;28;20032;-69
2022/08/14 02:49:12;;;;;;;11.63;9.90;;;;;;;18.17;84.46;98092.91;5035830;28;20052;-70
2022/08/14 02:51:37;;;;;;;13.38;9.70;;;;;;;18.17;85.15;98076.25;5032910;28;20479;-72
2022/08/14 02:54:06;;;;;;;13.20;10.70;;;;;;;18.15;84.64;98076.59;5031034;28;20064;-71
2022/08/14 02:56:32;;;;;;;12.43;10.07;;;;;;;18.12;84.71;98080.13;5030395;28;20090;-71
2022/08/14 02:59:00;;;;;;;14.63;10.23;;;;;;;18.10;84.73;98082.44;5029712;28;20041;-70
2022/08/14 03:01:27;;;;;;;15.93;11.10;;;;;;;18.09;84.90;98080.81;5031705;28;20036;-70
2022/08/14 03:03:54;;;;;;;13.90;10.77;;;;;;;18.10;84.61;98087.16;5031953;28;20029;-72
2022/08/14 03:06:22;;;;;;;13.70;9.80;;;;;;;18.09;84.66;98088.31;5032101;28;20052;-71
2022/08/14 03:08:48;;;;;;;13.90;10.32;;;;;;;18.10;84.71;98092.72;5029583;28;20873;-71
2022/08/14 03:11:14;;;;;;;13.63;10.30;;;;;;;18.11;84.50;98094.34;5030394;28;20454;-71
2022/08/14 03:13:42;;;;;;;13.20;9.80;;;;;;;18.14;84.88;98099.16;5029977;28;20032;-72
2022/08/14 03:16:13;;;;;;;14.35;10.10;;;;;;;18.13;84.53;98095.59;5030217;28;20647;-71
2022/08/14 03:18:42;;;;;;;13.15;10.50;;;;;;;18.12;84.63;98091.22;5029971;28;20104;-70
2022/08/14 03:21:14;;;;;;;12.20;9.82;;;;;;;18.12;84.63;98085.66;5030095;28;20026;-71
2022/08/14 03:23:45;;;;;;;13.13;10.35;;;;;;;18.14;84.35;98083.31;5027550;28;20375;-71
2022/08/14 03:26:17;;;;;;;13.93;9.98;;;;;;;18.15;84.29;98084.94;5030346;28;20091;-71
2022/08/14 03:28:45;;;;;;;13.52;10.45;;;;;;;18.18;84.41;98082.59;5029801;28;20544;-71
2022/08/14 03:31:11;;;;;;;13.05;10.23;;;;;;;18.21;84.28;98076.34;5029711;28;20102;-70
2022/08/14 03:33:39;;;;;;;14.23;10.38;;;;;;;18.21;84.46;98079.13;5029691;28;20025;-71
2022/08/14 03:36:16;;;;;;;12.43;10.07;;;;;;;18.23;84.15;98074.00;5028749;28;20497;-70
2022/08/14 03:38:43;;;;;;;13.73;10.65;;;;;;;18.24;84.17;98073.69;5029454;28;20041;-71
2022/08/14 03:41:15;;;;;;;13.10;10.25;;;;;;;18.23;84.12;98071.25;5029641;28;20490;-71
2022/08/14 03:43:41;;;;;;;13.30;9.88;;;;;;;18.24;84.15;98067.31;5030103;28;20057;-71
2022/08/14 03:46:12;;;;;;;14.10;10.25;;;;;;;18.23;84.26;98069.28;5030608;28;20025;-71
2022/08/14 03:48:38;;;;;;;12.15;10.15;;;;;;;18.21;84.27;98070.78;5029710;28;20028;-71
2022/08/14 03:51:07;;;;;;;12.27;9.48;;;;;;;18.18;83.89;98065.94;5031924;28;20445;-71
2022/08/14 03:53:35;;;;;;;12.13;9.70;;;;;;;18.20;84.23;98070.00;5029744;28;20033;-71
2022/08/14 03:56:00;;;;;;;11.15;9.57;;;;;;;18.17;83.87;98065.16;5030443;28;20079;-71
2022/08/14 03:58:28;;;;;;;14.13;9.93;;;;;;;18.15;84.04;98059.16;5029541;28;20495;-71
2022/08/14 04:00:54;;;;;;;12.77;9.77;;;;;;;18.14;83.90;98061.09;5027432;28;20032;-71
2022/08/14 04:03:23;;;;;;;13.73;10.02;;;;;;;18.18;84.00;98054.84;5029502;28;20033;-72
2022/08/14 04:05:49;;;;;;;13.00;10.37;;;;;;;18.18;84.68;98063.19;5029148;28;20023;-71
2022/08/14 04:08:15;;;;;;;12.52;9.95;;;;;;;18.14;84.17;98061.09;5029935;28;20025;-71
2022/08/14 04:10:40;;;;;;;12.68;10.77;;;;;;;18.15;84.14;98062.72;5029961;28;20036;-71
2022/08/14 04:13:06;;;;;;;13.23;10.27;;;;;;;18.15;83.98;98056.38;5029039;28;20025;-72
2022/08/14 04:15:32;;;;;;;12.25;9.82;;;;;;;18.19;84.18;98067.56;5030234;28;20025;-71
2022/08/14 04:18:08;;;;;;;12.57;9.77;;;;;;;18.19;84.03;98062.84;5029763;28;20093;-71
2022/08/14 04:20:41;;;;;;;13.80;9.57;;;;;;;18.20;83.94;98067.22;5028501;28;20039;-71
2022/08/14 04:23:08;;;;;;;11.20;9.43;;;;;;;18.22;84.19;98075.19;5029173;28;20017;-71
2022/08/14 04:25:35;;;;;;;12.57;9.88;;;;;;;18.22;83.97;98066.84;5029919;28;20075;-71
2022/08/14 04:28:02;;;;;;;12.00;8.88;;;;;;;18.24;84.30;98067.31;5029461;28;20075;-71
2022/08/14 04:30:29;;;;;;;11.32;9.65;;;;;;;18.24;83.90;98064.53;5028348;28;20045;-71
2022/08/14 04:32:55;;;;;;;11.07;8.93;;;;;;;18.24;83.92;98062.56;5029229;28;20032;-71
2022/08/14 04:35:20;;;;;;;11.93;9.60;;;;;;;18.27;84.10;98063.81;5029792;28;20067;-71
2022/08/14 04:45:58;;;;;;;11.57;9.38;;;;;;;18.39;83.94;98047.06;5027597;28;20078;-71
2022/08/14 04:48:26;;;;;;;10.75;8.98;;;;;;;18.43;84.21;98049.94;5029964;28;20295;-72
2022/08/14 04:50:52;;;;;;;11.63;9.07;;;;;;;18.46;84.09;98052.00;5030533;28;20021;-70
2022/08/14 04:53:21;;;;;;;12.07;9.20;;;;;;;18.46;83.86;98046.44;5028483;28;20147;-71
2022/08/14 04:55:48;;;;;;;11.85;9.27;;;;;;;18.47;83.68;98055.59;5029406;28;20029;-71
2022/08/14 04:58:18;;;;;;;15.10;9.85;;;;;;;18.44;83.74;98057.91;5029522;28;20549;-71
2022/08/14 05:00:45;;;;;;;14.63;9.77;;;;;;;18.42;83.73;98051.09;5029639;28;20095;-71
2022/08/14 05:03:12;;;;;;;11.98;9.32;;;;;;;18.48;83.64;98054.44;5030015;28;20109;-71
2022/08/14 05:05:38;;;;;;;12.65;9.32;;;;;;;18.49;83.72;98053.25;5029918;28;20021;-72
2022/08/14 05:08:07;;;;;;;12.95;9.35;;;;;;;18.50;83.66;98043.78;5029440;28;20029;-71
2022/08/14 05:10:38;;;;;;;12.77;9.48;;;;;;;18.50;83.69;98039.00;5030007;28;20032;-72
2022/08/14 05:13:04;;;;;;;12.63;9.98;;;;;;;18.49;83.62;98037.41;5029736;28;20040;-71
2022/08/14 05:15:35;;;;;;;14.02;9.93;;;;;;;18.51;83.98;98048.94;5028106;28;20475;-72
2022/08/14 05:18:09;;;;;;;11.85;10.10;;;;;;;18.50;83.66;98043.78;5029816;28;20028;-72
2022/08/14 05:20:35;;;;;;;11.90;10.63;;;;;;;18.53;83.73;98043.84;5027200;28;20108;-72
2022/08/14 05:23:02;;;;;;;13.38;11.20;;;;;;;18.54;83.32;98041.88;5029907;28;20116;-72
2022/08/14 05:25:28;;;;;;;13.88;11.18;;;;;;;18.55;83.54;98037.91;5029666;28;20022;-71
2022/08/14 05:27:59;;;;;;;14.00;10.98;;;;;;;18.56;83.46;98039.53;5029626;28;20024;-71
2022/08/14 05:30:25;;;;;;;16.35;11.35;;;;;;;18.57;83.56;98039.19;5029562;28;20033;-71
2022/08/14 05:32:50;;;;;;;15.70;11.27;;;;;;;18.56;83.60;98037.56;5029318;28;20025;-71
2022/08/14 05:35:16;;;;;;;15.75;11.48;;;;;;;18.56;83.74;98037.56;5029077;28;20083;-71
2022/08/14 05:37:42;;;;;;;14.95;11.32;;;;;;;18.57;83.56;98041.13;5028970;28;20039;-71
2022/08/14 05:40:09;;;;;;;15.73;10.93;;;;;;;18.58;83.59;98042.75;5029660;28;20481;-72
2022/08/14 05:42:34;;;;;;;13.75;10.75;;;;;;;18.61;83.46;98042.03;5029283;28;20041;-70
2022/08/14 05:45:01;;;;;;;13.02;10.02;;;;;;;18.62;83.72;98034.53;5029431;28;20038;-72
2022/08/14 05:47:26;;;;;;;13.27;10.77;;;;;;;18.62;83.46;98031.75;5029448;28;20380;-71
2022/08/14 05:49:52;;;;;;;15.07;11.05;;;;;;;18.67;83.42;98035.03;5029450;28;20032;-71
2022/08/14 05:52:17;;;;;;;15.63;11.43;;;;;;;18.72;83.39;98029.22;5028718;28;20109;-72
2022/08/14 05:54:43;;;;;;;17.30;11.18;;;;;;;18.80;83.52;98035.72;5028993;28;20032;-71
2022/08/14 05:57:08;;;;;;;16.05;11.48;;;;;;;18.86;83.35;98037.06;5028851;28;20060;-71
2022/08/14 05:59:34;;;;;;;19.35;11.48;;;;;;;18.93;83.33;98032.84;5028740;28;20033;-72
2022/08/14 06:01:59;;;;;;;16.17;11.63;;;;;;;18.95;83.24;98031.28;5029074;28;20507;-72
2022/08/14 06:04:28;;;;;;;15.38;11.90;;;;;;;19.01;83.16;98027.09;5028708;28;20029;-71
2022/08/14 06:06:53;;;;;;;18.58;13.25;;;;;;;19.08;83.02;98034.00;5029888;28;20028;-72
2022/08/14 06:09:19;;;;;;;22.48;14.43;;;;;;;19.16;83.09;98030.19;5033249;28;20026;-71
2022/08/14 06:11:44;;;;;;;21.92;15.00;;;;;;;19.23;82.99;98035.91;5032587;28;20029;-71
2022/08/14 06:14:09;;;;;;;22.42;15.15;;;;;;;19.26;83.05;98031.59;5032792;28;20118;-72
2022/08/14 06:16:35;;;;;;;25.30;17.00;;;;;;;19.32;82.87;98028.19;5032860;28;20167;-71
2022/08/14 06:19:00;;;;;;;25.67;16.77;;;;;;;19.37;82.76;98026.25;5032401;28;20403;-71
2022/08/14 06:21:26;;;;;;;26.13;17.15;;;;;;;19.41;82.63;98025.16;5032583;28;20071;-71
2022/08/14 06:23:51;;;;;;;25.75;17.30;;;;;;;19.47;82.86;98028.44;5032473;28;20025;-71
2022/08/14 06:26:17;;;;;;;24.95;17.20;;;;;;;19.49;82.73;98029.72;5032154;28;20168;-72
2022/08/14 06:28:42;;;;;;;24.13;16.83;;;;;;;19.52;82.56;98021.81;5032308;28;20026;-72
2022/08/14 06:31:10;;;;;;;26.00;16.92;;;;;;;19.50;82.21;98024.94;5032017;28;20542;-72
2022/08/14 06:33:35;;;;;;;22.52;16.27;;;;;;;19.51;82.52;98020.97;5032474;28;20053;-71
2022/08/14 06:36:01;;;;;;;24.17;16.67;;;;;;;19.49;82.08;98031.66;5031933;28;20095;-71
2022/08/14 06:38:26;;;;;;;23.38;15.75;;;;;;;19.49;82.20;98020.53;5030638;28;20025;-71
2022/08/14 06:40:51;;;;;;;22.50;15.70;;;;;;;19.50;82.16;98022.16;5031889;28;20463;-71
2022/08/14 06:43:18;;;;;;;24.92;15.68;;;;;;;19.53;82.07;98018.63;5032238;28;20050;-71
2022/08/14 06:45:46;;;;;;;24.98;16.90;;;;;;;19.57;82.06;98029.81;5032282;28;20024;-72
2022/08/14 06:48:21;;;;;;;23.83;16.17;;;;;;;19.62;81.98;98026.75;5031399;28;20028;-71
2022/08/14 06:50:47;;;;;;;24.60;15.63;;;;;;;19.67;81.78;98022.88;5032128;28;20033;-72
2022/08/14 06:53:15;;;;;;;22.92;15.63;;;;;;;19.72;82.01;98028.16;5031587;28;20036;-72
2022/08/14 06:55:41;;;;;;;26.58;17.05;;;;;;;19.74;81.87;98026.59;5031540;28;20514;-71
2022/08/14 06:58:11;;;;;;;24.08;16.23;;;;;;;19.81;81.94;98019.56;5031144;28;20025;-71
2022/08/14 07:00:37;;;;;;;23.67;16.08;;;;;;;19.90;81.86;98031.31;5031244;28;20116;-71
2022/08/14 07:05:47;;;;;;;21.95;15.38;;;;;;;20.03;81.72;98032.72;5031460;28;20167;-71
2022/08/14 07:08:21;;;;;;;19.98;14.82;;;;;;;20.05;81.54;98037.94;5030723;28;20535;-72
2022/08/14 07:10:49;;;;;;;22.77;15.30;;;;;;;20.03;81.31;98048.63;5031223;28;20084;-71
2022/08/14 07:13:19;;;;;;;23.17;15.68;;;;;;;20.00;81.26;98043.78;5031361;28;20513;-72
2022/08/14 07:15:49;;;;;;;23.70;16.25;;;;;;;19.98;81.06;98041.38;5030940;28;20025;-70
2022/08/14 07:18:22;;;;;;;20.88;15.52;;;;;;;19.93;81.07;98036.91;5028466;28;20024;-72
2022/08/14 07:20:49;;;;;;;21.33;15.27;;;;;;;19.92;81.10;98037.31;5028773;28;20033;-71
2022/08/14 07:23:14;;;;;;;22.67;16.08;;;;;;;19.92;81.00;98038.09;5031173;28;20021;-72
2022/08/14 07:25:42;;;;;;;23.42;16.20;;;;;;;19.91;80.84;98038.47;5031095;28;20112;-71
2022/08/14 07:28:17;;;;;;;26.13;16.58;;;;;;;19.90;81.01;98034.09;5030656;28;20071;-71
2022/08/14 07:30:43;;;;;;;25.25;16.98;;;;;;;19.92;80.97;98032.53;5028029;28;20193;-72
2022/08/14 07:33:09;;;;;;;26.17;16.98;;;;;;;19.93;80.92;98028.56;5030852;28;20100;-71
2022/08/14 07:35:35;;;;;;;24.17;16.88;;;;;;;19.93;80.62;98023.00;5030959;28;20021;-71
2022/08/14 07:38:01;;;;;;;25.77;17.30;;;;;;;19.99;80.84;98022.69;5030351;28;20022;-71
2022/08/14 07:40:27;;;;;;;23.42;16.95;;;;;;;20.03;80.78;98020.78;5031176;28;20467;-71
2022/08/14 07:42:53;;;;;;;24.50;16.63;;;;;;;20.04;80.81;98016.84;5030550;28;20109;-71
2022/08/14 07:45:18;;;;;;;26.45;17.05;;;;;;;20.04;80.69;98011.25;5029662;28;20040;-72
2022/08/14 07:47:44;;;;;;;24.65;16.50;;;;;;;20.07;80.74;98021.66;5030823;28;20479;-72
2022/08/14 07:50:13;;;;;;;25.58;16.77;;;;;;;20.09;80.60;98016.53;5030346;28;20040;-71
2022/08/14 07:52:40;;;;;;;26.10;18.15;;;;;;;20.11;80.60;98024.50;5031318;28;20088;-71
2022/08/14 07:55:07;;;;;;;27.77;18.42;;;;;;;20.12;80.41;98024.16;5031909;28;20037;-71
2022/08/14 07:57:33;;;;;;;27.40;18.63;;;;;;;20.13;80.16;98024.94;5030929;28;20686;-71
2022/08/14 07:59:58;;;;;;;27.15;18.33;;;;;;;20.18;80.31;98032.97;5030385;28;20040;-72
2022/08/14 08:02:29;;;;;;;25.77;18.02;;;;;;;20.20;80.35;98025.06;5031425;28;20035;-71
2022/08/14 08:04:58;;;;;;;24.88;17.45;;;;;;;20.22;80.31;98031.84;5031916;28;20071;-72
2022/08/14 08:07:25;;;;;;;29.98;20.15;;;;;;;20.20;79.93;98022.28;5031445;28;20075;-72
2022/08/14 08:09:56;;;;;;;29.88;20.00;;;;;;;20.17;80.13;98025.81;5031950;28;20086;-72
2022/08/14 08:12:24;;;;;;;30.35;19.80;;;;;;;20.16;80.01;98019.44;5025548;28;20025;-72
2022/08/14 08:14:50;;;;;;;27.63;19.38;;;;;;;20.18;80.17;98019.06;5025969;28;20029;-72
2022/08/14 08:17:20;;;;;;;29.83;18.85;;;;;;;20.22;80.20;98015.16;5034396;28;20399;-72
2022/08/14 08:19:49;;;;;;;28.25;18.60;;;;;;;20.32;80.27;98010.13;5033619;28;20029;-72
2022/08/14 08:22:14;;;;;;;26.58;19.55;;;;;;;20.42;80.05;98012.31;5031432;28;20484;-72
2022/08/14 08:24:40;;;;;;;28.15;19.02;;;;;;;20.52;80.11;98014.47;5031528;28;20044;-72
2022/08/14 08:27:16;;;;;;;27.45;19.40;;;;;;;20.72;80.26;98017.13;5030775;28;20048;-72
2022/08/14 08:29:41;;;;;;;27.17;17.63;;;;;;;20.90;80.09;98013.84;5030794;28;20475;-72
2022/08/14 08:32:07;;;;;;;27.48;17.27;;;;;;;21.04;80.02;98016.81;5031338;28;20072;-73
2022/08/14 08:34:43;;;;;;;23.00;16.05;;;;;;;21.10;79.49;98018.09;5031113;28;20080;-73
2022/08/14 08:37:09;;;;;;;23.08;15.85;;;;;;;21.11;79.42;98022.50;5031461;28;20035;-73
2022/08/14 08:39:45;;;;;;;25.85;17.20;;;;;;;21.12;79.48;98009.38;5030762;28;20030;-72
2022/08/14 08:42:10;;;;;;;23.77;17.33;;;;;;;21.15;78.88;98011.41;5030098;28;20017;-73
2022/08/14 08:44:36;;;;;;;20.15;14.65;;;;;;;21.09;78.97;98012.91;5029706;28;20041;-73
2022/08/14 08:47:06;;;;;;;23.45;17.15;;;;;;;21.08;78.70;98012.09;5029682;28;20017;-73
2022/08/14 08:49:38;;;;;;;24.50;16.65;;;;;;;21.15;78.58;98007.78;5029715;28;20387;-73
2022/08/14 08:52:04;;;;;;;24.88;17.35;;;;;;;21.23;78.86;98015.06;5029554;28;20023;-73
2022/08/14 08:54:29;;;;;;;23.23;17.02;;;;;;;21.29;78.57;98010.78;5030431;28;20029;-73
2022/08/14 08:56:56;;;;;;;21.27;15.43;;;;;;;21.38;78.40;98007.69;5030577;28;20036;-73
2022/08/14 08:59:29;;;;;;;21.63;15.68;;;;;;;21.46;78.21;98006.59;5029248;28;20483;-73
2022/08/14 09:02:00;;;;;;;21.85;15.88;;;;;;;21.48;78.09;98006.19;5027450;28;20088;-71
2022/08/14 09:04:33;;;;;;;20.27;15.88;;;;;;;21.49;77.85;98002.22;5030262;28;20033;-72
2022/08/14 09:06:59;;;;;;;22.80;15.65;;;;;;;21.51;77.77;98009.03;5030612;28;20032;-72
2022/08/14 09:09:27;;;;;;;24.33;16.92;;;;;;;21.52;77.90;98007.88;5030362;28;20029;-72
2022/08/14 09:11:54;;;;;;;22.08;16.13;;;;;;;21.53;77.58;98001.09;5028898;28;21330;-72
2022/08/14 09:14:25;;;;;;;27.35;16.50;;;;;;;21.51;77.30;98000.69;5028368;28;20053;-71
2022/08/14 09:16:51;;;;;;;21.20;15.82;;;;;;;21.48;76.84;98003.41;5029802;28;20498;-72
2022/08/14 09:19:17;;;;;;;22.45;15.85;;;;;;;21.43;76.76;98007.34;5027756;28;20487;-71
2022/08/14 09:21:45;;;;;;;22.08;15.02;;;;;;;21.44;76.98;98006.16;5028067;28;20060;-72
2022/08/14 09:24:10;;;;;;;18.40;13.85;;;;;;;21.50;77.03;97998.25;5029783;28;20021;-72
2022/08/14 09:26:37;;;;;;;20.42;15.70;;;;;;;21.53;77.17;97992.72;5029361;28;20072;-72
2022/08/14 09:29:04;;;;;;;21.90;16.65;;;;;;;21.56;76.89;98002.31;5028855;28;20033;-72
2022/08/14 09:31:32;;;;;;;21.80;15.30;;;;;;;21.60;76.58;97999.56;5029305;28;20472;-72
2022/08/14 09:34:16;;;;;;;19.88;13.43;;;;;;;21.70;76.61;97996.94;5029614;28;20025;-72
2022/08/14 09:36:45;;;;;;;18.98;14.07;;;;;;;21.89;76.08;97997.13;5029694;28;20438;-72
2022/08/14 09:39:22;;;;;;;18.77;13.90;;;;;;;22.11;76.18;97993.31;5030370;28;20037;-71
2022/08/14 09:42:02;;;;;;;16.30;12.25;;;;;;;22.35;75.81;97991.13;5032966;28;20055;-72
2022/08/14 09:44:46;;;;;;;16.80;12.48;;;;;;;22.56;75.53;97987.72;5033269;28;20041;-72
2022/08/14 09:47:13;;;;;;;14.27;11.73;;;;;;;22.72;75.20;97981.03;5033191;28;20022;-71
2022/08/14 09:49:41;;;;;;;13.50;11.00;;;;;;;22.77;74.55;97989.06;5032482;28;20060;-72
2022/08/14 09:52:14;;;;;;;14.85;12.07;;;;;;;22.81;74.41;97995.47;5033208;28;20026;-72
2022/08/14 09:54:41;;;;;;;13.98;11.27;;;;;;;22.87;74.44;97991.13;5034402;28;20033;-72
2022/08/14 09:57:09;;;;;;;13.10;10.80;;;;;;;22.99;74.53;97986.41;5032831;28;20022;-72
2022/08/14 09:59:44;;;;;;;14.77;11.13;;;;;;;23.10;74.20;97983.66;5030518;28;20558;-72
2022/08/14 10:02:36;;;;;;;13.98;10.65;;;;;;;23.16;74.05;97990.47;5031775;28;20030;-72
2022/08/14 10:05:08;;;;;;;15.07;11.73;;;;;;;23.16;73.73;97994.06;5030180;28;20080;-72
2022/08/14 10:07:49;;;;;;;17.55;12.63;;;;;;;23.07;73.25;97996.41;5032395;28;20021;-72
2022/08/14 10:10:30;;;;;;;19.60;14.63;;;;;;;22.90;72.14;97990.34;5032435;28;20091;-72
2022/08/14 10:12:56;;;;;;;21.35;15.52;;;;;;;22.64;72.05;97996.97;5032399;28;20108;-72
2022/08/14 10:15:24;;;;;;;17.77;14.18;;;;;;;22.40;72.16;97988.00;5032767;28;20104;-72
2022/08/14 10:17:51;;;;;;;18.52;14.73;;;;;;;22.26;72.38;97985.88;5031580;28;20033;-71
2022/08/14 10:20:21;;;;;;;19.50;14.65;;;;;;;22.20;72.78;97989.41;5031699;28;21299;-71
2022/08/14 10:22:48;;;;;;;20.92;14.02;;;;;;;22.23;73.01;97983.06;5031516;28;20515;-71
2022/08/14 10:25:16;;;;;;;15.73;13.00;;;;;;;22.29;73.28;97985.09;5031198;28;20025;-72
2022/08/14 10:27:45;;;;;;;19.35;14.00;;;;;;;22.35;72.96;97979.16;5030359;28;20041;-72
2022/08/14 10:30:17;;;;;;;18.83;14.23;;;;;;;22.41;73.46;97978.41;5031144;28;20087;-71
2022/08/14 10:32:45;;;;;;;19.17;14.90;;;;;;;22.53;73.53;97971.75;5029521;28;20060;-72
2022/08/14 10:35:11;;;;;;;20.80;15.70;;;;;;;22.68;73.30;97977.41;5031799;28;20403;-72
2022/08/14 10:37:39;;;;;;;19.27;15.57;;;;;;;22.70;73.23;97986.22;5030867;28;20087;-72
2022/08/14 10:40:06;;;;;;;19.23;14.95;;;;;;;22.74;73.16;97989.84;5030299;28;20029;-71
2022/08/14 10:42:40;;;;;;;16.65;12.93;;;;;;;22.81;73.31;97989.09;5031347;28;20022;-71
2022/08/14 10:45:20;;;;;;;14.40;11.35;;;;;;;22.99;73.36;97992.00;5030574;28;20247;-72
2022/08/14 10:47:48;;;;;;;13.70;11.15;;;;;;;23.25;73.32;97990.13;5029137;28;20054;-72
2022/08/14 10:50:14;;;;;;;11.98;10.27;;;;;;;23.31;71.49;97978.16;5030220;28;20038;-71
2022/08/14 10:52:41;;;;;;;14.05;10.50;;;;;;;23.33;71.86;97989.75;5030411;28;20029;-72
2022/08/14 10:55:14;;;;;;;12.57;10.02;;;;;;;23.45;71.95;97983.00;5031097;28;20049;-72
2022/08/14 10:57:51;;;;;;;9.73;7.97;;;;;;;23.68;72.12;97979.09;5029590;28;20099;-72
2022/08/14 11:00:22;;;;;;;9.50;8.43;;;;;;;23.89;72.01;97983.09;5030457;28;20065;-72
2022/08/14 11:02:59;;;;;;;8.50;7.60;;;;;;;23.97;70.93;97979.13;5028890;28;20021;-72
2022/08/14 11:05:40;;;;;;;9.13;7.88;;;;;;;24.00;69.69;97978.34;5030845;28;20033;-72
2022/08/14 11:08:06;;;;;;;9.32;7.90;;;;;;;23.91;69.04;97984.31;5030715;28;20036;-72
2022/08/14 11:10:38;;;;;;;9.88;8.25;;;;;;;23.84;69.91;97980.72;5029434;28;20087;-72
2022/08/14 11:13:03;;;;;;;8.82;7.70;;;;;;;23.75;69.45;97979.09;5031941;28;20176;-72
2022/08/14 11:15:29;;;;;;;10.48;7.07;;;;;;;23.67;69.65;97983.06;5031765;28;20504;-72
2022/08/14 11:17:55;;;;;;;7.38;6.10;;;;;;;23.57;70.03;97981.84;5032015;28;20369;-72
2022/08/14 11:20:23;;;;;;;9.00;8.07;;;;;;;23.46;70.01;97981.81;5032692;28;20164;-72
2022/08/14 11:22:54;;;;;;;11.38;8.82;;;;;;;23.34;70.31;97979.38;5032575;28;20045;-72
2022/08/14 11:25:25;;;;;;;14.23;9.55;;;;;;;23.24;70.08;97978.13;5031223;28;20049;-72
2022/08/14 11:27:53;;;;;;;10.27;8.00;;;;;;;23.12;70.30;97984.84;5028696;28;20498;-72
2022/08/14 11:30:21;;;;;;;11.63;9.55;;;;;;;22.99;70.43;97983.59;5031661;28;20025;-72
2022/08/14 11:32:48;;;;;;;15.10;11.70;;;;;;;22.83;70.51;97978.28;5032399;28;20025;-73
2022/08/14 11:35:22;;;;;;;11.55;8.88;;;;;;;22.71;70.83;97976.63;5032353;28;20388;-72
2022/08/14 11:37:50;;;;;;;10.40;7.57;;;;;;;22.64;70.78;97971.00;5032004;28;20171;-72